Time;durP1;ratioP1;P1;durP2;ratioP2;P2;SDS_P1;SDS_P2;PMS_P1;PMS_P2;Temp;Humidity;BMP_temperature;BMP_pressure;BME280_temperature;BME280_humidity;BME280_pressure;Samples;Min_cycle;Max_cycle;Signal;HPM_P1;HPM_P2
2021/12/01 00:00:49;;;;;;;56.78;6.97;;;;;;;10.61;100.00;99424.22;5024402;28;20036;-74
2021/12/01 00:03:18;;;;;;;48.72;7.65;;;;;;;10.57;100.00;99412.44;5024326;28;21864;-74
2021/12/01 00:05:44;;;;;;;44.90;7.43;;;;;;;10.57;100.00;99407.09;5012583;28;20044;-73
2021/12/01 00:08:12;;;;;;;44.72;6.80;;;;;;;10.51;100.00;99405.53;5029201;28;20467;-73
2021/12/01 00:10:41;;;;;;;48.92;7.47;;;;;;;10.55;100.00;99401.19;5025940;28;20036;-73
2021/12/01 00:13:11;;;;;;;43.42;6.80;;;;;;;10.53;100.00;99376.56;5024401;28;20028;-72
2021/12/01 00:15:42;;;;;;;46.67;7.15;;;;;;;10.57;100.00;99369.53;5023162;28;20575;-72
2021/12/01 00:18:08;;;;;;;50.40;6.70;;;;;;;10.50;100.00;99353.75;5027665;28;20040;-73
2021/12/01 00:20:33;;;;;;;53.75;6.80;;;;;;;10.39;100.00;99352.25;5026323;28;20044;-74
2021/12/01 00:23:02;;;;;;;44.03;6.57;;;;;;;10.50;100.00;99355.66;5026064;28;20135;-74
2021/12/01 00:25:29;;;;;;;41.72;6.07;;;;;;;10.50;100.00;99339.56;5012639;28;20030;-74
2021/12/01 00:27:57;;;;;;;42.72;6.80;;;;;;;10.45;100.00;99334.25;5024039;28;20127;-75
2021/12/01 00:30:23;;;;;;;48.40;7.63;;;;;;;10.47;100.00;99324.03;5024608;28;20407;-74
2021/12/01 00:32:55;;;;;;;41.17;7.38;;;;;;;10.45;100.00;99324.31;5023266;28;20033;-74
2021/12/01 00:35:21;;;;;;;45.38;7.15;;;;;;;10.35;100.00;99316.38;5023515;28;20040;-74
2021/12/01 00:37:47;;;;;;;38.40;6.78;;;;;;;10.45;100.00;99310.13;5023435;28;20045;-74
2021/12/01 00:40:13;;;;;;;48.75;6.75;;;;;;;10.36;100.00;99291.97;5023715;28;20043;-74
2021/12/01 00:42:38;;;;;;;36.05;5.55;;;;;;;10.34;100.00;99278.03;5023153;28;20497;-74
2021/12/01 00:45:13;;;;;;;49.13;7.30;;;;;;;10.30;100.00;99287.72;5022186;28;20515;-74
2021/12/01 00:47:43;;;;;;;40.42;6.50;;;;;;;10.35;100.00;99285.00;5003256;28;20745;-75
2021/12/01 00:50:11;;;;;;;53.17;6.78;;;;;;;10.41;100.00;99266.16;5028268;28;20383;-74
2021/12/01 00:52:39;;;;;;;51.35;7.65;;;;;;;10.41;100.00;99269.66;5027680;28;20635;-74
2021/12/01 00:55:08;;;;;;;62.50;7.90;;;;;;;10.38;100.00;99262.97;5023403;28;20519;-74
2021/12/01 00:57:34;;;;;;;51.35;7.40;;;;;;;10.43;100.00;99253.31;5022790;28;20183;-74
2021/12/01 01:00:00;;;;;;;49.55;7.35;;;;;;;10.46;100.00;99244.69;5023811;28;20033;-73
2021/12/01 01:02:25;;;;;;;44.15;7.68;;;;;;;10.37;100.00;99237.25;5011704;28;20146;-73
2021/12/01 01:04:53;;;;;;;50.45;8.18;;;;;;;10.43;100.00;99237.22;5024250;28;20142;-73
2021/12/01 01:07:21;;;;;;;44.10;6.82;;;;;;;10.42;100.00;99231.03;5025488;28;20076;-74
2021/12/01 01:09:46;;;;;;;52.53;7.07;;;;;;;10.36;100.00;99227.63;5023918;28;20136;-74
2021/12/01 01:18:02;;;;;;;53.38;7.88;;;;;;;10.36;100.00;99195.44;5026460;28;20563;-73
2021/12/01 01:20:27;;;;;;;52.13;7.90;;;;;;;10.27;100.00;99181.06;5025794;28;20041;-74
2021/12/01 01:22:55;;;;;;;59.25;7.95;;;;;;;10.30;100.00;99201.94;5009990;28;20053;-74
2021/12/01 01:25:23;;;;;;;55.15;7.63;;;;;;;10.24;100.00;99180.81;5022374;28;20083;-75
2021/12/01 01:27:49;;;;;;;53.88;7.93;;;;;;;10.29;100.00;99167.38;5037827;28;20536;-73
2021/12/01 01:30:14;;;;;;;64.50;9.93;;;;;;;10.23;100.00;99181.91;5023276;28;20040;-74
2021/12/01 01:32:40;;;;;;;66.32;8.65;;;;;;;10.14;100.00;99162.13;5022755;28;20036;-73
2021/12/01 01:35:08;;;;;;;76.13;10.52;;;;;;;10.25;100.00;99150.25;5023520;28;20052;-73
2021/12/01 01:37:38;;;;;;;64.60;10.20;;;;;;;10.19;100.00;99140.66;5026376;28;20786;-74
2021/12/01 01:40:07;;;;;;;56.08;9.63;;;;;;;10.08;100.00;99126.53;5026145;28;20036;-75
2021/12/01 01:42:33;;;;;;;64.00;9.90;;;;;;;10.09;100.00;99130.81;5022236;28;20346;-74
2021/12/01 01:44:59;;;;;;;55.33;8.20;;;;;;;10.00;100.00;99138.66;5022601;28;20036;-74
2021/12/01 01:47:29;;;;;;;67.53;8.18;;;;;;;9.97;100.00;99125.84;5020921;28;20068;-72
2021/12/01 01:50:15;;;;;;;57.78;9.57;;;;;;;9.94;100.00;99113.03;5026218;28;20028;-74
2021/12/01 01:52:41;;;;;;;76.68;10.02;;;;;;;9.95;100.00;99105.78;5034465;28;20029;-75
2021/12/01 01:55:09;;;;;;;64.65;9.20;;;;;;;9.93;100.00;99083.81;5022799;28;20484;-74
2021/12/01 01:57:34;;;;;;;62.03;9.23;;;;;;;9.95;100.00;99070.94;5021902;28;20029;-75
2021/12/01 02:00:00;;;;;;;57.90;8.90;;;;;;;9.97;100.00;99076.81;5009521;28;21104;-74
2021/12/01 02:02:25;;;;;;;54.28;8.32;;;;;;;10.02;100.00;99061.50;5022039;28;20029;-71
2021/12/01 02:04:56;;;;;;;60.25;9.50;;;;;;;10.07;100.00;99057.94;5021461;28;20041;-72
2021/12/01 02:07:24;;;;;;;59.90;8.88;;;;;;;10.07;100.00;99055.25;5024947;28;20047;-74
2021/12/01 02:09:50;;;;;;;68.63;9.27;;;;;;;10.11;100.00;99032.19;5022529;28;20083;-74
2021/12/01 02:12:22;;;;;;;67.53;9.43;;;;;;;10.20;100.00;99070.66;5005054;28;20056;-73
2021/12/01 02:14:47;;;;;;;69.28;9.80;;;;;;;10.22;100.00;99047.09;5021921;28;20531;-73
2021/12/01 02:17:13;;;;;;;65.82;8.45;;;;;;;10.20;100.00;99029.66;5022071;28;20051;-74
2021/12/01 02:19:38;;;;;;;59.13;10.75;;;;;;;10.35;100.00;99034.88;5021437;28;20029;-73
2021/12/01 02:22:04;;;;;;;73.65;11.25;;;;;;;10.34;100.00;99030.59;5020891;28;20037;-72
2021/12/01 02:24:30;;;;;;;60.10;8.95;;;;;;;10.49;100.00;99022.34;5036525;28;20032;-73
2021/12/01 02:26:58;;;;;;;53.97;8.43;;;;;;;10.53;100.00;99017.22;5035580;28;20048;-74
2021/12/01 02:29:26;;;;;;;73.40;10.80;;;;;;;10.52;100.00;98996.84;5026244;28;21818;-73
2021/12/01 02:31:54;;;;;;;72.65;10.38;;;;;;;10.54;100.00;98994.69;5022550;28;20052;-74
2021/12/01 02:34:22;;;;;;;75.85;11.75;;;;;;;10.63;100.00;98979.53;5024616;28;20615;-74
2021/12/01 02:36:52;;;;;;;68.43;9.88;;;;;;;10.53;100.00;98966.28;5022407;28;20211;-73
2021/12/01 02:39:18;;;;;;;60.75;9.40;;;;;;;10.59;100.00;98957.88;5020610;28;20137;-72
2021/12/01 02:41:46;;;;;;;62.30;10.55;;;;;;;10.58;100.00;98944.72;5021753;28;20241;-74
2021/12/01 02:44:17;;;;;;;56.97;8.73;;;;;;;10.65;100.00;98945.16;5020318;28;20649;-74
2021/12/01 02:46:43;;;;;;;76.57;11.57;;;;;;;10.55;100.00;98934.59;5017147;28;20075;-72
2021/12/01 02:49:09;;;;;;;55.55;9.32;;;;;;;10.50;100.00;98922.03;5008927;28;20539;-72
2021/12/01 02:51:37;;;;;;;69.43;12.20;;;;;;;10.38;100.00;98917.13;5024683;28;20681;-75
2021/12/01 02:54:04;;;;;;;80.25;11.45;;;;;;;10.43;100.00;98918.16;5036716;28;20253;-75
2021/12/01 02:56:31;;;;;;;70.82;10.50;;;;;;;10.41;100.00;98906.91;5021640;28;20025;-74
2021/12/01 02:58:58;;;;;;;79.30;11.85;;;;;;;10.38;100.00;98881.50;5022554;28;20441;-74
2021/12/01 03:01:24;;;;;;;78.13;11.65;;;;;;;10.26;100.00;98889.16;5012874;28;20480;-72
2021/12/01 03:03:52;;;;;;;80.10;12.15;;;;;;;10.28;100.00;98895.84;5027990;28;20033;-73
2021/12/01 03:06:19;;;;;;;81.55;12.57;;;;;;;10.28;100.00;98871.72;5038810;28;20039;-73
2021/12/01 03:08:47;;;;;;;73.30;10.52;;;;;;;10.22;100.00;98862.16;5025114;28;20042;-72
2021/12/01 03:11:14;;;;;;;74.72;10.07;;;;;;;10.26;100.00;98854.31;5025049;28;20030;-73
2021/12/01 03:13:40;;;;;;;69.47;10.32;;;;;;;10.28;100.00;98865.56;5013152;28;20539;-73
2021/12/01 03:16:08;;;;;;;64.32;8.73;;;;;;;10.21;100.00;98849.81;5039940;28;20120;-73
2021/12/01 03:18:33;;;;;;;66.47;10.55;;;;;;;10.19;100.00;98848.53;5024486;28;20039;-73
2021/12/01 03:20:59;;;;;;;55.25;8.02;;;;;;;10.10;100.00;98843.03;5024498;28;20059;-71
2021/12/01 03:23:28;;;;;;;66.13;8.15;;;;;;;10.16;100.00;98841.84;5026157;28;20114;-72
2021/12/01 03:25:56;;;;;;;65.97;7.93;;;;;;;10.18;100.00;98830.81;5028951;28;20282;-74
2021/12/01 03:28:22;;;;;;;52.85;7.15;;;;;;;10.07;100.00;98811.44;5024430;28;20048;-74
2021/12/01 03:30:48;;;;;;;59.42;7.85;;;;;;;10.07;100.00;98801.50;5025280;28;20158;-72
2021/12/01 03:33:17;;;;;;;60.88;9.30;;;;;;;10.05;100.00;98810.94;5039581;28;20043;-72
2021/12/01 03:35:49;;;;;;;62.08;9.18;;;;;;;9.92;100.00;98800.94;5003935;28;20034;-73
2021/12/01 03:38:15;;;;;;;63.88;8.50;;;;;;;9.93;100.00;98789.13;5039926;28;20048;-73
2021/12/01 03:40:43;;;;;;;56.00;9.32;;;;;;;9.86;100.00;98764.63;5011701;28;21774;-72
2021/12/01 03:43:09;;;;;;;60.33;8.30;;;;;;;9.88;100.00;98786.53;5013601;28;20036;-73
2021/12/01 03:45:35;;;;;;;58.78;7.38;;;;;;;9.87;100.00;98768.88;5024623;28;22272;-74
2021/12/01 03:48:03;;;;;;;54.90;7.82;;;;;;;9.82;100.00;98762.50;5023851;28;20730;-73
2021/12/01 03:50:31;;;;;;;47.95;5.90;;;;;;;9.76;100.00;98755.63;5025475;28;20033;-72
2021/12/01 03:52:57;;;;;;;61.67;8.50;;;;;;;9.74;100.00;98755.13;5023735;28;20033;-74
2021/12/01 03:55:22;;;;;;;59.83;8.38;;;;;;;9.74;100.00;98743.63;5022935;28;20065;-73
2021/12/01 03:57:50;;;;;;;46.78;8.00;;;;;;;9.69;100.00;98731.13;5039315;28;20102;-72
2021/12/01 04:00:17;;;;;;;50.53;7.90;;;;;;;9.56;100.00;98742.53;5023571;28;20028;-73
2021/12/01 04:02:43;;;;;;;37.95;6.43;;;;;;;9.58;100.00;98713.59;5023924;28;20438;-73
2021/12/01 04:05:12;;;;;;;53.10;7.22;;;;;;;9.56;100.00;98715.78;5017086;28;20060;-72
2021/12/01 04:07:40;;;;;;;30.92;5.50;;;;;;;9.55;100.00;98712.31;5023474;28;20036;-73
2021/12/01 04:10:09;;;;;;;44.00;6.68;;;;;;;9.49;100.00;98715.34;5038514;28;20071;-72
2021/12/01 04:12:35;;;;;;;39.05;5.88;;;;;;;9.50;100.00;98717.72;5023903;28;20524;-72
2021/12/01 04:15:01;;;;;;;49.45;7.47;;;;;;;9.51;100.00;98692.53;5024291;28;20124;-72
2021/12/01 04:17:31;;;;;;;37.05;5.85;;;;;;;9.53;100.00;98694.94;5023514;28;20039;-72
2021/12/01 04:19:56;;;;;;;52.80;7.43;;;;;;;9.42;100.00;98677.44;5024062;28;20533;-73
2021/12/01 04:22:22;;;;;;;52.80;6.57;;;;;;;9.44;100.00;98697.47;5024071;28;20045;-73
2021/12/01 04:24:47;;;;;;;34.45;5.85;;;;;;;9.36;100.00;98668.66;5022494;28;20534;-71
2021/12/01 04:27:15;;;;;;;33.22;5.38;;;;;;;9.39;100.00;98686.06;5024624;28;20485;-71
2021/12/01 04:29:43;;;;;;;46.22;6.28;;;;;;;9.35;100.00;98674.31;5023150;28;20056;-71
2021/12/01 04:32:11;;;;;;;33.08;5.70;;;;;;;9.26;100.00;98664.25;5022470;28;20030;-73
2021/12/01 04:34:37;;;;;;;39.53;6.18;;;;;;;9.35;100.00;98658.25;5024298;28;20061;-73
2021/12/01 04:37:03;;;;;;;40.38;7.18;;;;;;;9.31;100.00;98649.22;5038376;28;20119;-72
2021/12/01 04:39:29;;;;;;;37.67;6.43;;;;;;;9.36;100.00;98649.13;5002379;28;20033;-72
2021/12/01 04:42:03;;;;;;;40.00;5.95;;;;;;;9.27;100.00;98639.09;5022016;28;20044;-72
2021/12/01 04:44:36;;;;;;;63.47;9.40;;;;;;;9.28;100.00;98645.25;5022652;28;20043;-72
2021/12/01 04:47:08;;;;;;;46.28;7.47;;;;;;;9.33;100.00;98639.81;4999464;28;20547;-71
2021/12/01 04:49:37;;;;;;;58.65;8.25;;;;;;;9.31;100.00;98639.31;5024156;28;20515;-71
2021/12/01 04:52:03;;;;;;;55.50;8.13;;;;;;;9.29;100.00;98624.66;5019785;28;20028;-70
2021/12/01 04:54:29;;;;;;;55.10;9.90;;;;;;;9.19;100.00;98607.63;5011003;28;20129;-72
2021/12/01 04:56:54;;;;;;;60.30;10.07;;;;;;;9.26;100.00;98613.41;5009413;28;20360;-71
2021/12/01 04:59:21;;;;;;;49.40;7.93;;;;;;;9.19;100.00;98596.94;5023568;28;20500;-71
2021/12/01 05:01:52;;;;;;;62.97;10.07;;;;;;;9.26;100.00;98586.66;5022687;28;20225;-71
2021/12/01 05:04:17;;;;;;;59.40;9.27;;;;;;;9.23;100.00;98579.22;5023632;28;20112;-71
2021/12/01 05:06:46;;;;;;;64.18;10.02;;;;;;;9.32;100.00;98581.25;5021928;28;20029;-71
2021/12/01 05:09:14;;;;;;;53.13;7.88;;;;;;;9.23;100.00;98552.47;5022679;28;20412;-72
2021/12/01 05:11:40;;;;;;;47.15;9.35;;;;;;;9.32;100.00;98563.31;5021458;28;20523;-72
2021/12/01 05:14:12;;;;;;;56.20;8.60;;;;;;;9.37;100.00;98568.59;5022224;28;20111;-71
2021/12/01 05:16:41;;;;;;;65.93;9.90;;;;;;;9.34;100.00;98544.28;5013673;28;20572;-73
2021/12/01 05:19:08;;;;;;;62.13;9.05;;;;;;;9.36;100.00;98553.59;5027698;28;20064;-71
2021/12/01 05:21:33;;;;;;;52.28;8.27;;;;;;;9.42;100.00;98554.31;5023049;28;20503;-72
2021/12/01 05:24:00;;;;;;;44.72;7.90;;;;;;;9.44;100.00;98552.13;5026668;28;20068;-72
2021/12/01 05:26:28;;;;;;;53.20;7.95;;;;;;;9.38;100.00;98558.69;5038041;28;20719;-71
2021/12/01 05:28:53;;;;;;;68.65;10.23;;;;;;;9.41;100.00;98547.38;5021543;28;20064;-73
2021/12/01 05:31:19;;;;;;;66.30;9.38;;;;;;;9.43;100.00;98550.53;5010581;28;20067;-71
2021/12/01 05:33:45;;;;;;;59.10;8.82;;;;;;;9.46;100.00;98552.66;5024434;28;20487;-71
2021/12/01 05:36:13;;;;;;;55.05;7.22;;;;;;;9.49;100.00;98541.34;5022085;28;20051;-71
2021/12/01 05:38:38;;;;;;;66.10;9.55;;;;;;;9.55;100.00;98540.19;5010895;28;20028;-73
2021/12/01 05:41:05;;;;;;;55.85;6.75;;;;;;;9.53;100.00;98523.63;5020675;28;20037;-71
2021/12/01 05:43:30;;;;;;;51.97;7.82;;;;;;;9.61;100.00;98509.56;5026531;28;20443;-73
2021/12/01 05:45:59;;;;;;;60.85;9.05;;;;;;;9.45;100.00;98517.06;5023414;28;20040;-73
2021/12/01 05:48:24;;;;;;;77.70;10.63;;;;;;;9.50;100.00;98503.56;5005035;28;20029;-74
2021/12/01 05:50:50;;;;;;;78.85;11.27;;;;;;;9.62;100.00;98497.75;5036309;28;20048;-74
2021/12/01 05:53:15;;;;;;;83.50;12.02;;;;;;;9.70;100.00;98491.72;5021467;28;20662;-74
2021/12/01 05:55:41;;;;;;;82.57;10.82;;;;;;;9.73;100.00;98498.34;5023104;28;20197;-74
2021/12/01 05:58:09;;;;;;;79.35;10.57;;;;;;;9.84;100.00;98489.81;5023734;28;20141;-74
2021/12/01 06:00:38;;;;;;;89.53;11.95;;;;;;;9.89;100.00;98483.59;5022691;28;20067;-74
2021/12/01 06:03:03;;;;;;;86.28;10.27;;;;;;;9.91;100.00;98485.97;5023456;28;20059;-75
2021/12/01 06:05:29;;;;;;;100.60;13.27;;;;;;;9.92;100.00;98471.47;5009185;28;20615;-73
2021/12/01 06:07:55;;;;;;;75.47;10.73;;;;;;;10.01;100.00;98473.16;5020294;28;20106;-74
2021/12/01 06:10:25;;;;;;;71.85;9.73;;;;;;;9.97;100.00;98464.13;5010052;28;20744;-74
2021/12/01 06:12:52;;;;;;;64.10;9.35;;;;;;;9.92;100.00;98456.19;5022368;28;20138;-73
2021/12/01 06:15:20;;;;;;;82.80;11.25;;;;;;;9.92;100.00;98464.22;5024962;28;22027;-73
2021/12/01 06:17:45;;;;;;;72.75;10.48;;;;;;;9.91;100.00;98459.16;5022109;28;20033;-74
2021/12/01 06:20:12;;;;;;;80.78;9.93;;;;;;;9.84;100.00;98460.34;5027883;28;20033;-73
2021/12/01 06:22:39;;;;;;;82.50;11.43;;;;;;;9.86;100.00;98457.41;5022619;28;21895;-73
2021/12/01 06:25:05;;;;;;;75.95;11.57;;;;;;;9.87;100.00;98458.19;5021671;28;20759;-73
2021/12/01 06:27:31;;;;;;;71.68;11.00;;;;;;;9.81;100.00;98452.94;5022154;28;20064;-73
2021/12/01 06:30:02;;;;;;;69.20;11.15;;;;;;;9.87;100.00;98439.44;5021645;28;21928;-73
2021/12/01 06:32:32;;;;;;;57.78;8.43;;;;;;;9.89;100.00;98451.44;5022274;28;20512;-75
2021/12/01 06:34:59;;;;;;;56.58;7.20;;;;;;;9.83;100.00;98437.34;5025613;28;20041;-74
2021/12/01 06:37:25;;;;;;;51.53;7.32;;;;;;;9.86;100.00;98437.88;5013076;28;20136;-74
2021/12/01 06:39:53;;;;;;;51.30;7.15;;;;;;;9.86;100.00;98424.47;5025278;28;20025;-73
2021/12/01 06:42:18;;;;;;;45.78;7.07;;;;;;;9.89;100.00;98421.19;5026809;28;20128;-75
2021/12/01 06:44:46;;;;;;;39.95;6.45;;;;;;;9.91;100.00;98405.59;5026237;28;20488;-74
2021/12/01 06:47:11;;;;;;;57.88;8.75;;;;;;;9.88;100.00;98393.63;5030957;28;20028;-74
2021/12/01 06:49:37;;;;;;;48.20;6.50;;;;;;;9.88;100.00;98400.84;5025189;28;21998;-73
2021/12/01 06:52:03;;;;;;;45.67;7.13;;;;;;;9.93;100.00;98404.19;5023393;28;20032;-74
2021/12/01 06:54:28;;;;;;;46.47;6.57;;;;;;;9.91;100.00;98401.03;5023727;28;20040;-74
2021/12/01 06:56:54;;;;;;;62.22;8.93;;;;;;;9.89;100.00;98413.94;5024902;28;20087;-74
2021/12/01 06:59:19;;;;;;;49.38;6.30;;;;;;;9.82;100.00;98392.91;5025722;28;20040;-74
2021/12/01 07:01:45;;;;;;;49.47;6.90;;;;;;;9.80;100.00;98413.06;5038956;28;20488;-75
2021/12/01 07:04:12;;;;;;;41.92;7.10;;;;;;;9.76;100.00;98390.63;5025138;28;20061;-74
2021/12/01 07:06:40;;;;;;;47.22;7.32;;;;;;;9.62;100.00;98384.53;5025047;28;20072;-74
2021/12/01 07:09:05;;;;;;;39.45;6.43;;;;;;;9.64;100.00;98412.56;5024680;28;20272;-73
2021/12/01 07:11:33;;;;;;;45.30;8.27;;;;;;;9.50;100.00;98395.72;5025189;28;20025;-74
2021/12/01 07:13:58;;;;;;;54.33;8.63;;;;;;;9.44;100.00;98415.63;5024512;28;20555;-72
2021/12/01 07:16:25;;;;;;;58.75;8.27;;;;;;;9.39;100.00;98415.75;5025531;28;20040;-73
2021/12/01 07:18:51;;;;;;;44.67;7.90;;;;;;;9.30;100.00;98406.81;5024687;28;20472;-73
2021/12/01 07:21:21;;;;;;;47.15;7.25;;;;;;;9.05;100.00;98406.19;5022101;28;20271;-71
2021/12/01 07:23:49;;;;;;;54.33;8.93;;;;;;;9.17;100.00;98406.50;5025250;28;20146;-72
2021/12/01 07:26:14;;;;;;;40.35;6.20;;;;;;;9.00;100.00;98419.63;5024553;28;20037;-75
2021/12/01 07:28:40;;;;;;;30.58;5.38;;;;;;;9.01;100.00;98442.63;5023595;28;20523;-72
2021/12/01 07:31:08;;;;;;;43.15;7.28;;;;;;;9.01;100.00;98434.59;5024947;28;20065;-72
2021/12/01 07:33:34;;;;;;;52.22;8.45;;;;;;;9.10;100.00;98430.16;5013438;28;20132;-72
2021/12/01 07:36:02;;;;;;;44.15;6.20;;;;;;;8.99;100.00;98428.75;5023831;28;20261;-73
2021/12/01 07:38:29;;;;;;;45.28;5.38;;;;;;;9.00;100.00;98424.97;5025484;28;20048;-73
2021/12/01 07:40:55;;;;;;;34.78;5.10;;;;;;;8.86;100.00;98445.53;5023807;28;20029;-73
2021/12/01 07:43:23;;;;;;;44.15;7.47;;;;;;;8.87;100.00;98441.78;5024567;28;20063;-72
2021/12/01 07:45:48;;;;;;;34.85;5.70;;;;;;;8.70;100.00;98453.78;5022299;28;20529;-73
2021/12/01 07:48:14;;;;;;;39.75;7.05;;;;;;;8.62;100.00;98435.75;5012336;28;20036;-72
2021/12/01 07:50:40;;;;;;;41.20;6.18;;;;;;;8.59;100.00;98436.34;5023723;28;20039;-72
2021/12/01 07:53:06;;;;;;;35.85;4.97;;;;;;;8.48;100.00;98442.91;5024295;28;22253;-72
2021/12/01 07:55:31;;;;;;;43.33;6.00;;;;;;;8.47;100.00;98444.00;5020630;28;20125;-73
2021/12/01 07:57:57;;;;;;;49.03;7.82;;;;;;;8.54;100.00;98449.75;5024396;28;20246;-73
2021/12/01 08:00:23;;;;;;;50.15;7.00;;;;;;;8.81;100.00;98453.66;5023478;28;20515;-74
2021/12/01 08:02:48;;;;;;;32.20;5.22;;;;;;;8.66;100.00;98462.69;5023706;28;20041;-73
2021/12/01 08:05:14;;;;;;;33.25;4.85;;;;;;;8.38;100.00;98451.84;5021749;28;20052;-72
2021/12/01 08:07:45;;;;;;;29.58;4.35;;;;;;;8.43;100.00;98472.38;5026947;28;20447;-73
2021/12/01 08:10:10;;;;;;;32.97;6.10;;;;;;;8.46;100.00;98452.28;5023518;28;20051;-73
2021/12/01 08:12:38;;;;;;;37.05;5.85;;;;;;;8.46;100.00;98469.13;5023340;28;20210;-72
2021/12/01 08:15:05;;;;;;;42.28;7.03;;;;;;;8.63;100.00;98458.75;5036746;28;20197;-72
2021/12/01 08:17:33;;;;;;;40.95;6.32;;;;;;;8.64;100.00;98471.00;5012451;28;20068;-72
2021/12/01 08:20:03;;;;;;;34.78;5.45;;;;;;;8.70;100.00;98467.16;5023084;28;20056;-73
2021/12/01 08:22:31;;;;;;;26.40;4.57;;;;;;;8.75;100.00;98473.53;5024337;28;20089;-73
2021/12/01 08:24:59;;;;;;;41.05;5.68;;;;;;;8.68;100.00;98466.66;5027570;28;20784;-73
2021/12/01 08:27:26;;;;;;;41.67;5.70;;;;;;;8.72;100.00;98485.59;5020465;28;20218;-73
2021/12/01 08:29:58;;;;;;;43.60;6.95;;;;;;;8.74;100.00;98470.06;5037840;28;20091;-73
2021/12/01 08:32:28;;;;;;;38.55;5.68;;;;;;;8.62;100.00;98469.69;5025572;28;20101;-74
2021/12/01 08:34:56;;;;;;;32.38;4.78;;;;;;;8.58;100.00;98472.16;5023250;28;20059;-73
2021/12/01 08:37:22;;;;;;;33.03;5.07;;;;;;;8.34;100.00;98458.06;5023480;28;20067;-73
2021/12/01 08:39:49;;;;;;;33.17;5.65;;;;;;;8.49;100.00;98484.59;5025531;28;22737;-72
2021/12/01 08:42:21;;;;;;;31.73;4.75;;;;;;;8.34;100.00;98488.22;5021887;28;20132;-74
2021/12/01 08:44:48;;;;;;;39.10;5.13;;;;;;;8.39;100.00;98498.09;5022686;28;20037;-73
2021/12/01 08:47:15;;;;;;;38.38;5.75;;;;;;;8.31;100.00;98491.50;4985100;28;20044;-72
2021/12/01 08:49:45;;;;;;;42.38;5.85;;;;;;;8.19;100.00;98504.44;4998796;28;20116;-72
2021/12/01 08:52:13;;;;;;;40.33;5.50;;;;;;;7.98;100.00;98487.91;5022994;28;20060;-71
2021/12/01 08:54:41;;;;;;;41.55;5.13;;;;;;;8.00;100.00;98500.97;5000070;28;20459;-71
2021/12/01 08:57:07;;;;;;;40.92;6.07;;;;;;;8.06;100.00;98508.63;5022032;28;20033;-72
2021/12/01 08:59:32;;;;;;;36.35;5.55;;;;;;;8.01;100.00;98506.00;5023196;28;20480;-72
2021/12/01 09:02:02;;;;;;;39.75;6.50;;;;;;;8.10;100.00;98501.63;5011846;28;20052;-72
2021/12/01 09:04:28;;;;;;;36.15;5.78;;;;;;;8.01;100.00;98516.69;5024184;28;20047;-72
2021/12/01 09:06:57;;;;;;;54.40;7.20;;;;;;;8.13;100.00;98508.25;5022578;28;20029;-72
2021/12/01 09:09:22;;;;;;;44.38;6.18;;;;;;;8.19;100.00;98527.69;5027205;28;20469;-72
2021/12/01 09:11:53;;;;;;;36.92;5.70;;;;;;;8.19;100.00;98509.00;5022913;28;20126;-72
2021/12/01 09:14:23;;;;;;;31.67;5.05;;;;;;;8.19;100.00;98527.69;5023554;28;20068;-72
2021/12/01 09:16:50;;;;;;;40.17;5.38;;;;;;;8.29;100.00;98535.59;5028348;28;20152;-73
2021/12/01 09:19:22;;;;;;;43.42;5.85;;;;;;;8.36;100.00;98531.50;5038540;28;20484;-71
2021/12/01 09:21:48;;;;;;;38.72;4.60;;;;;;;8.34;100.00;98527.53;5021646;28;20037;-73
2021/12/01 09:24:14;;;;;;;36.92;4.93;;;;;;;8.42;100.00;98527.69;5022180;28;20347;-73
2021/12/01 09:26:44;;;;;;;35.03;5.10;;;;;;;8.29;100.00;98535.59;5023245;28;20036;-73
2021/12/01 09:29:10;;;;;;;31.38;5.32;;;;;;;8.43;100.00;98563.22;5023870;28;20060;-72
2021/12/01 09:31:36;;;;;;;37.03;5.22;;;;;;;8.35;100.00;98535.28;5021370;28;20048;-70
2021/12/01 09:34:02;;;;;;;34.83;5.70;;;;;;;8.35;100.00;98547.84;5022998;28;20037;-72
2021/12/01 09:36:31;;;;;;;39.50;5.55;;;;;;;8.35;100.00;98537.16;5023022;28;20037;-72
2021/12/01 09:38:57;;;;;;;44.83;6.60;;;;;;;8.30;100.00;98537.16;5022347;28;20440;-73
2021/12/01 09:41:29;;;;;;;48.20;5.93;;;;;;;8.22;100.00;98537.81;5027272;28;20072;-72
2021/12/01 09:43:54;;;;;;;48.13;5.63;;;;;;;8.22;100.00;98527.91;5023360;28;20466;-71
2021/12/01 09:46:20;;;;;;;30.30;4.93;;;;;;;8.25;100.00;98539.91;5023394;28;20454;-71
2021/12/01 09:48:48;;;;;;;46.78;7.25;;;;;;;8.22;100.00;98554.63;5022786;28;20531;-71
2021/12/01 09:51:20;;;;;;;41.35;6.40;;;;;;;8.32;100.00;98554.53;5026514;28;20060;-71
2021/12/01 09:53:48;;;;;;;37.70;5.47;;;;;;;8.28;100.00;98544.69;5011767;28;20099;-73
2021/12/01 09:56:16;;;;;;;51.40;6.60;;;;;;;8.37;100.00;98554.47;5037117;28;20043;-72
2021/12/01 09:58:43;;;;;;;29.73;4.60;;;;;;;8.26;100.00;98544.97;5023840;28;20029;-71
2021/12/01 10:01:22;;;;;;;42.63;6.30;;;;;;;8.22;100.00;98527.91;5022901;28;20025;-72
2021/12/01 10:03:51;;;;;;;50.35;7.30;;;;;;;8.38;100.00;98540.03;5036114;28;20029;-74
2021/12/01 10:06:27;;;;;;;36.28;5.78;;;;;;;8.48;100.00;98541.00;5020717;28;20033;-73
2021/12/01 10:08:56;;;;;;;31.83;5.03;;;;;;;8.48;100.00;98533.78;5010502;28;20090;-71
2021/12/01 10:11:28;;;;;;;47.70;6.78;;;;;;;8.52;100.00;98539.34;5004920;28;20167;-72
2021/12/01 10:14:03;;;;;;;39.03;6.47;;;;;;;8.59;100.00;98542.44;5036533;28;20087;-73
2021/12/01 10:16:43;;;;;;;44.47;6.43;;;;;;;8.55;100.00;98547.59;5009944;28;20047;-73
2021/12/01 10:19:12;;;;;;;;;;;;;;;8.48;100.00;98546.34;5023543;28;20056;-74
2021/12/01 10:21:38;;;;;;;40.72;6.68;;;;;;;8.53;100.00;98571.13;5026507;28;19925;-73
2021/12/01 10:24:09;;;;;;;37.70;5.63;;;;;;;8.54;100.00;98551.31;5022164;28;20622;-74
2021/12/01 10:26:43;;;;;;;44.33;7.70;;;;;;;8.57;100.00;98545.41;5018001;28;20214;-73
2021/12/01 10:29:20;;;;;;;39.78;6.80;;;;;;;8.58;100.00;98547.00;5022711;28;20305;-73
2021/12/01 10:31:55;;;;;;;39.95;7.13;;;;;;;8.58;100.00;98546.22;5025199;28;20032;-73
2021/12/01 10:34:20;;;;;;;45.58;7.40;;;;;;;8.62;100.00;98539.97;5022831;28;20025;-73
2021/12/01 10:36:48;;;;;;;35.35;6.32;;;;;;;8.66;100.00;98549.03;5026158;28;20147;-73
2021/12/01 10:39:14;;;;;;;37.72;5.95;;;;;;;8.69;100.00;98537.75;5005863;28;20049;-74
2021/12/01 10:41:43;;;;;;;43.03;6.13;;;;;;;8.76;100.00;98541.94;5036509;28;20092;-73
2021/12/01 10:44:18;;;;;;;39.40;6.03;;;;;;;8.80;100.00;98551.00;5021834;28;20044;-73
2021/12/01 10:46:48;;;;;;;46.88;6.30;;;;;;;8.69;100.00;98542.31;5037068;28;20040;-73
2021/12/01 10:49:15;;;;;;;41.10;6.53;;;;;;;8.74;100.00;98536.91;5016798;28;20050;-73
2021/12/01 10:51:44;;;;;;;41.42;5.50;;;;;;;8.64;100.00;98540.50;5000966;28;20512;-75
2021/12/01 10:54:21;;;;;;;52.85;7.25;;;;;;;8.67;100.00;98531.91;5018118;28;20033;-73
2021/12/01 10:57:32;;;;;;;55.50;8.18;;;;;;;8.58;100.00;98536.31;5022858;28;20064;-73
2021/12/01 10:59:58;;;;;;;43.70;6.60;;;;;;;8.68;100.00;98535.38;5017784;28;20055;-74
2021/12/01 11:02:23;;;;;;;38.42;6.07;;;;;;;8.67;100.00;98547.16;5020701;28;20048;-73
2021/12/01 11:04:52;;;;;;;46.22;7.80;;;;;;;8.67;100.00;98529.22;5020657;28;20163;-73
2021/12/01 11:07:25;;;;;;;46.35;6.45;;;;;;;8.67;100.00;98523.88;5036316;28;20350;-73
2021/12/01 11:10:13;;;;;;;49.38;6.60;;;;;;;8.70;100.00;98552.72;5022713;28;20049;-73
2021/12/01 11:12:40;;;;;;;38.42;5.90;;;;;;;8.64;100.00;98540.50;5021717;28;20140;-71
2021/12/01 11:15:28;;;;;;;40.33;6.00;;;;;;;8.75;100.00;98545.72;5009685;28;20086;-71
2021/12/01 11:17:55;;;;;;;43.78;6.60;;;;;;;8.74;100.00;98542.25;5021605;28;20047;-71
2021/12/01 11:20:39;;;;;;;40.92;7.32;;;;;;;8.75;100.00;98559.88;5022117;28;20064;-71
2021/12/01 11:23:32;;;;;;;41.58;7.20;;;;;;;8.61;100.00;98529.59;5027835;28;20040;-71
2021/12/01 11:26:15;;;;;;;51.33;7.45;;;;;;;8.66;100.00;98537.56;5025822;28;20219;-73
2021/12/01 11:29:00;;;;;;;43.92;8.55;;;;;;;8.65;100.00;98547.44;5024564;28;20171;-72
2021/12/01 11:31:32;;;;;;;39.17;6.63;;;;;;;8.73;100.00;98543.34;5023011;28;20045;-73